createdAt,value
2023-04-25T00:00:08.141Z,66.39
2023-04-25T00:03:01.051Z,66.70
2023-04-25T00:05:30.716Z,66.81
2023-04-25T00:07:59.595Z,66.92
2023-04-25T00:10:27.998Z,67.20
2023-04-25T00:12:56.433Z,67.60
2023-04-25T00:15:25.588Z,67.64
2023-04-25T00:17:54.306Z,67.50
2023-04-25T00:20:24.763Z,67.84
2023-04-25T00:22:54.776Z,68.41
2023-04-25T00:25:23.267Z,68.58
2023-04-25T00:27:51.737Z,69.02
2023-04-25T00:30:20.179Z,68.90
2023-04-25T00:32:48.702Z,69.16
2023-04-25T00:35:17.169Z,69.62
2023-04-25T00:37:46.207Z,69.61
2023-04-25T00:40:14.588Z,69.58
2023-04-25T00:42:43.174Z,69.23
2023-04-25T00:45:16.251Z,69.35
2023-04-25T00:47:45.137Z,69.64
2023-04-25T00:50:13.644Z,69.81
2023-04-25T00:52:44.776Z,70.10
2023-04-25T00:55:13.871Z,70.02
2023-04-25T00:57:43.027Z,70.10
2023-04-25T01:00:12.284Z,69.97
2023-04-25T01:02:41.519Z,70.02
2023-04-25T01:05:10.224Z,70.02
2023-04-25T01:07:38.712Z,69.85
2023-04-25T01:10:07.776Z,69.76
2023-04-25T01:12:36.443Z,69.85
2023-04-25T01:15:05.522Z,69.67
2023-04-25T01:17:36.265Z,69.65
2023-04-25T01:20:06.189Z,69.69
2023-04-25T01:22:34.806Z,69.56
2023-04-25T01:25:03.948Z,69.64
2023-04-25T01:27:33.160Z,69.91
2023-04-25T01:30:01.745Z,69.89
2023-04-25T01:32:39.281Z,69.87
2023-04-25T01:35:10.632Z,69.94
2023-04-25T01:37:42.897Z,69.99
2023-04-25T01:40:13.438Z,70.19
2023-04-25T01:42:43.598Z,70.27
2023-04-25T01:45:12.966Z,70.25
2023-04-25T01:47:41.532Z,70.06
2023-04-25T01:50:10.899Z,69.90
2023-04-25T01:52:39.790Z,69.63
2023-04-25T01:55:09.180Z,69.72
2023-04-25T01:57:39.648Z,69.47
2023-04-25T02:00:09.778Z,69.16
2023-04-25T02:02:40.991Z,69.27
2023-04-25T02:05:24.490Z,69.21
2023-04-25T02:07:53.680Z,69.12
2023-04-25T02:10:22.176Z,69.23
2023-04-25T02:13:25.856Z,68.86
2023-04-25T02:16:05.230Z,68.67
2023-04-25T02:18:34.333Z,68.86
2023-04-25T02:21:02.876Z,69.06
2023-04-25T02:23:31.724Z,69.08
2023-04-25T02:26:02.029Z,69.43
2023-04-25T02:28:30.636Z,69.72
2023-04-25T02:30:59.030Z,69.92
2023-04-25T02:33:27.401Z,70.37
2023-04-25T02:35:55.792Z,70.34
2023-04-25T02:38:24.168Z,70.46
2023-04-25T02:40:52.817Z,70.50
2023-04-25T02:43:21.927Z,70.46
2023-04-25T02:45:50.287Z,70.51
2023-04-25T02:48:19.728Z,71.10
2023-04-25T02:50:48.112Z,71.02
2023-04-25T02:53:16.672Z,70.84
2023-04-25T02:55:50.784Z,70.55
2023-04-25T02:58:19.786Z,70.16
2023-04-25T03:00:50.771Z,70.07
2023-04-25T03:03:19.450Z,69.71
2023-04-25T03:05:48.289Z,69.75
2023-04-25T03:08:17.516Z,69.66
2023-04-25T03:10:46.272Z,69.48
2023-04-25T03:13:15.644Z,69.33
2023-04-25T03:15:45.052Z,68.91
2023-04-25T03:18:13.513Z,68.49
2023-04-25T03:20:43.023Z,68.12
2023-04-25T03:23:11.473Z,67.40
2023-04-25T03:25:41.906Z,66.86
2023-04-25T03:28:10.437Z,66.58
2023-04-25T03:30:39.200Z,66.23
2023-04-25T03:33:07.970Z,66.22
2023-04-25T03:35:36.668Z,65.66
2023-04-25T03:38:05.067Z,65.65
2023-04-25T03:40:36.808Z,65.07
2023-04-25T03:43:19.632Z,65.38
2023-04-25T03:45:53.277Z,65.86
2023-04-25T03:48:25.859Z,65.60
2023-04-25T03:50:56.204Z,65.75
2023-04-25T03:53:27.232Z,65.56
2023-04-25T03:56:13.866Z,65.79
2023-04-25T03:58:42.683Z,65.53
2023-04-25T04:01:12.179Z,65.35
2023-04-25T04:03:40.865Z,65.49
2023-04-25T04:06:10.325Z,65.77
2023-04-25T04:08:42.181Z,65.81
2023-04-25T04:11:12.253Z,65.04
2023-04-25T04:13:40.830Z,65.25
2023-04-25T04:16:09.943Z,65.21
2023-04-25T04:18:38.593Z,64.81
2023-04-25T04:21:13.336Z,64.78
2023-04-25T04:23:43.053Z,64.58
2023-04-25T04:26:12.661Z,64.70
2023-04-25T04:29:00.573Z,64.43
2023-04-25T04:31:53.915Z,65.42
2023-04-25T04:34:22.693Z,66.01
2023-04-25T04:36:51.052Z,65.51
2023-04-25T04:39:19.808Z,64.94
2023-04-25T04:42:06.248Z,64.25
2023-04-25T04:44:49.417Z,64.62
2023-04-25T04:47:33.877Z,63.53
2023-04-25T04:50:36.785Z,63.03
2023-04-25T04:53:23.325Z,62.40
2023-04-25T04:55:54.488Z,62.25
2023-04-25T04:58:31.229Z,62.26
2023-04-25T05:01:20.570Z,62.21
2023-04-25T05:04:08.200Z,62.06
2023-04-25T05:06:59.238Z,61.99
2023-04-25T05:09:33.636Z,61.90
2023-04-25T05:12:35.296Z,62.24
2023-04-25T05:15:28.507Z,62.08
2023-04-25T05:18:14.184Z,62.07
2023-04-25T05:20:49.276Z,62.09
2023-04-25T05:23:23.168Z,62.25
2023-04-25T05:26:05.010Z,62.23
2023-04-25T05:28:39.091Z,62.53
2023-04-25T05:31:18.472Z,62.48
2023-04-25T05:34:01.819Z,62.42
2023-04-25T05:36:42.258Z,62.19
2023-04-25T05:39:10.872Z,62.47
2023-04-25T05:41:57.636Z,62.98
2023-04-25T05:44:44.297Z,62.91
2023-04-25T05:47:28.764Z,63.15
2023-04-25T05:50:07.906Z,63.23
2023-04-25T05:53:07.122Z,63.45
2023-04-25T05:55:41.673Z,63.72
2023-04-25T05:58:23.347Z,63.96
2023-04-25T06:00:52.012Z,64.58
2023-04-25T06:03:20.812Z,63.99
2023-04-25T06:05:50.103Z,63.89
2023-04-25T06:08:31.304Z,63.78
2023-04-25T06:11:02.738Z,63.86
2023-04-25T06:13:31.305Z,63.96
2023-04-25T06:15:59.698Z,64.00
2023-04-25T06:18:28.686Z,64.00
2023-04-25T06:20:57.366Z,63.94
2023-04-25T06:23:26.089Z,64.15
2023-04-25T06:25:59.782Z,64.26
2023-04-25T06:28:29.690Z,64.24
2023-04-25T06:30:58.330Z,63.76
2023-04-25T06:33:27.988Z,63.90
2023-04-25T06:35:57.125Z,63.85
2023-04-25T06:38:28.163Z,64.19
2023-04-25T06:40:58.364Z,64.17
2023-04-25T06:43:27.290Z,64.17
2023-04-25T06:45:58.600Z,64.56
2023-04-25T06:48:29.330Z,64.55
2023-04-25T06:50:58.124Z,64.38
2023-04-25T06:53:26.709Z,64.15
2023-04-25T06:56:03.089Z,64.10
2023-04-25T06:58:52.990Z,64.05
2023-04-25T07:01:36.654Z,63.79
2023-04-25T07:04:08.074Z,63.60
2023-04-25T07:06:43.724Z,63.48
2023-04-25T07:09:13.257Z,63.64
2023-04-25T07:11:47.652Z,63.25
2023-04-25T07:14:16.582Z,63.43
2023-04-25T07:16:45.009Z,63.26
2023-04-25T07:19:53.256Z,63.20
2023-04-25T07:26:51.857Z,63.01
2023-04-25T07:29:28.647Z,63.30
2023-04-25T07:37:13.291Z,62.72
2023-04-25T07:44:42.357Z,61.99
2023-04-25T07:47:12.601Z,62.11
2023-04-25T07:49:41.459Z,62.04
2023-04-25T07:52:10.320Z,61.52
2023-04-25T07:54:39.585Z,61.20
2023-04-25T07:57:16.087Z,61.40
2023-04-25T07:59:46.932Z,61.35
2023-04-25T08:02:18.690Z,61.53
2023-04-25T08:04:52.087Z,60.96
2023-04-25T08:07:22.061Z,61.74
2023-04-25T08:09:53.836Z,60.97
2023-04-25T08:12:28.863Z,60.90
2023-04-25T08:14:58.119Z,61.11
2023-04-25T08:17:29.352Z,61.41
2023-04-25T08:19:58.425Z,61.38
2023-04-25T08:22:32.148Z,61.02
2023-04-25T08:25:24.489Z,60.81
2023-04-25T08:27:52.941Z,60.90
2023-04-25T08:30:22.871Z,61.21
2023-04-25T08:32:52.585Z,61.21
2023-04-25T08:35:50.756Z,60.72
2023-04-25T08:38:22.771Z,60.93
2023-04-25T08:40:54.692Z,60.95
2023-04-25T08:43:24.826Z,61.00
2023-04-25T08:45:57.673Z,60.97
2023-04-25T08:48:36.050Z,61.27
2023-04-25T08:53:44.096Z,61.53
2023-04-25T08:56:14.557Z,61.34
2023-04-25T08:58:45.116Z,61.60
2023-04-25T09:01:16.746Z,61.03
2023-04-25T09:03:50.384Z,61.32
2023-04-25T09:06:20.576Z,62.06
2023-04-25T09:08:51.715Z,61.66
2023-04-25T09:11:21.800Z,61.66
2023-04-25T09:14:27.958Z,62.24
2023-04-25T09:17:13.727Z,61.97
2023-04-25T09:19:48.917Z,61.56
2023-04-25T09:22:23.594Z,62.64
2023-04-25T09:24:52.485Z,63.37
2023-04-25T09:27:24.734Z,64.32
2023-04-25T09:30:02.129Z,64.59
2023-04-25T09:32:36.381Z,64.79
2023-04-25T09:35:06.339Z,65.39
2023-04-25T09:37:34.876Z,66.90
2023-04-25T09:40:08.865Z,69.55
2023-04-25T09:42:45.262Z,71.50
2023-04-25T09:45:16.347Z,73.08
2023-04-25T09:47:45.740Z,74.91
2023-04-25T09:50:20.266Z,76.40
2023-04-25T09:53:07.123Z,77.51
2023-04-25T09:56:01.855Z,78.42
2023-04-25T09:58:33.097Z,80.13
2023-04-25T10:01:08.916Z,81.26
2023-04-25T10:03:43.731Z,82.00
2023-04-25T10:06:45.418Z,82.17
2023-04-25T10:09:15.233Z,83.79
2023-04-25T10:11:44.301Z,84.59
2023-04-25T10:14:14.163Z,85.16
2023-04-25T10:16:43.339Z,85.37
2023-04-25T10:19:12.238Z,87.78
2023-04-25T10:22:06.092Z,87.43
2023-04-25T10:24:36.497Z,88.06
2023-04-25T10:27:05.878Z,88.39
2023-04-25T10:29:34.484Z,87.80
2023-04-25T10:32:03.767Z,87.29
2023-04-25T10:34:44.925Z,85.98
2023-04-25T10:37:14.715Z,86.77
2023-04-25T10:39:43.564Z,87.07
2023-04-25T10:42:13.024Z,87.04
2023-04-25T10:44:41.575Z,87.47
2023-04-25T10:47:11.314Z,88.46
2023-04-25T10:49:46.682Z,87.72
2023-04-25T10:52:29.404Z,88.66
2023-04-25T10:54:59.129Z,88.63
2023-04-25T10:57:30.650Z,89.35
2023-04-25T11:00:07.764Z,89.23
2023-04-25T11:02:58.757Z,89.52
2023-04-25T11:05:50.923Z,89.57
2023-04-25T11:08:49.306Z,89.84
2023-04-25T11:11:19.074Z,91.35
2023-04-25T11:13:51.428Z,91.20
2023-04-25T11:16:27.656Z,90.59
2023-04-25T11:18:58.605Z,90.61
2023-04-25T11:21:33.010Z,90.28
2023-04-25T11:24:01.957Z,89.59
2023-04-25T11:26:31.435Z,89.20
2023-04-25T11:29:03.223Z,88.96
2023-04-25T11:31:33.087Z,90.06
2023-04-25T11:34:02.503Z,87.39
2023-04-25T11:36:32.658Z,87.41
2023-04-25T11:39:01.283Z,87.06
2023-04-25T11:41:32.363Z,86.54
2023-04-25T11:44:01.414Z,86.32
2023-04-25T11:46:30.642Z,85.93
2023-04-25T11:48:59.007Z,86.00
2023-04-25T11:51:27.526Z,85.79
2023-04-25T11:53:56.364Z,86.16
2023-04-25T11:56:24.883Z,85.47
2023-04-25T11:59:02.432Z,83.50
2023-04-25T12:01:35.278Z,82.96
2023-04-25T12:04:18.595Z,84.28
2023-04-25T12:06:51.871Z,82.60
2023-04-25T12:09:31.692Z,82.21
2023-04-25T12:12:04.584Z,81.63
2023-04-25T12:14:36.051Z,82.74
2023-04-25T12:17:06.616Z,82.69
2023-04-25T12:19:36.942Z,81.76
2023-04-25T12:22:19.747Z,81.13
2023-04-25T12:24:48.386Z,81.43
2023-04-25T12:27:20.356Z,81.44
2023-04-25T12:29:54.103Z,81.15
2023-04-25T12:32:22.992Z,81.52
2023-04-25T12:34:51.656Z,80.98
2023-04-25T12:37:20.220Z,80.76
2023-04-25T12:39:48.654Z,80.99
2023-04-25T12:42:19.550Z,80.92
2023-04-25T12:44:49.126Z,80.69
2023-04-25T12:47:17.737Z,81.94
2023-04-25T12:49:46.658Z,80.18
2023-04-25T12:52:15.276Z,80.99
2023-04-25T12:54:44.144Z,80.48
2023-04-25T12:57:12.650Z,80.25
2023-04-25T12:59:41.128Z,78.97
2023-04-25T13:02:09.686Z,78.95
2023-04-25T13:04:38.547Z,78.86
2023-04-25T13:07:07.521Z,79.36
2023-04-25T13:09:36.317Z,79.78
2023-04-25T13:12:05.633Z,81.06
2023-04-25T13:14:34.008Z,81.69
2023-04-25T13:17:02.503Z,82.25
2023-04-25T13:19:32.046Z,80.98
2023-04-25T13:22:00.430Z,82.64
2023-04-25T13:24:28.920Z,82.14
2023-04-25T13:26:57.250Z,81.75
2023-04-25T13:29:25.618Z,82.31
2023-04-25T13:31:53.993Z,82.19
2023-04-25T13:34:22.377Z,81.94
2023-04-25T13:36:50.786Z,81.29
2023-04-25T13:39:19.522Z,80.85
2023-04-25T13:41:47.894Z,81.16
2023-04-25T13:44:16.421Z,80.58
2023-04-25T13:46:47.472Z,79.94
2023-04-25T13:49:16.945Z,79.11
2023-04-25T13:51:48.744Z,79.10
2023-04-25T13:54:17.333Z,78.09
2023-04-25T13:56:46.899Z,77.49
2023-04-25T13:59:15.315Z,76.73
2023-04-25T14:01:44.193Z,76.70
2023-04-25T14:04:12.682Z,76.59
2023-04-25T14:06:41.212Z,76.70
2023-04-25T14:09:12.768Z,77.04
2023-04-25T14:11:45.126Z,76.51
2023-04-25T14:14:15.015Z,76.41
2023-04-25T14:16:43.455Z,76.53
2023-04-25T14:19:11.756Z,76.55
2023-04-25T14:21:41.298Z,76.25
2023-04-25T14:24:12.035Z,76.30
2023-04-25T14:26:40.826Z,76.30
2023-04-25T14:29:09.950Z,76.30
2023-04-25T14:31:40.356Z,76.91
2023-04-25T14:34:09.250Z,76.66
2023-04-25T14:36:38.505Z,76.77
2023-04-25T14:39:07.223Z,76.81
2023-04-25T14:41:35.900Z,77.24
2023-04-25T14:44:04.392Z,77.72
2023-04-25T14:46:33.209Z,77.83
2023-04-25T14:49:03.077Z,78.11
2023-04-25T14:51:32.358Z,78.52
2023-04-25T14:54:00.953Z,78.84
2023-04-25T14:56:29.604Z,78.65
2023-04-25T14:58:58.181Z,79.07
2023-04-25T15:01:27.579Z,79.80
2023-04-25T15:03:56.769Z,79.84
2023-04-25T15:06:28.162Z,80.00
2023-04-25T15:08:57.213Z,80.40
2023-04-25T15:11:25.935Z,80.28
2023-04-25T15:13:54.715Z,80.09
2023-04-25T15:16:23.366Z,79.90
2023-04-25T15:18:51.945Z,80.28
2023-04-25T15:21:20.881Z,80.18
2023-04-25T15:23:49.574Z,79.93
2023-04-25T15:26:18.338Z,80.15
2023-04-25T15:28:47.305Z,80.33
2023-04-25T15:31:15.972Z,80.28
2023-04-25T15:33:44.850Z,80.08
2023-04-25T15:36:13.671Z,80.57
2023-04-25T15:38:42.276Z,80.55
2023-04-25T15:41:10.623Z,80.90
2023-04-25T15:43:39.119Z,81.34
2023-04-25T15:46:07.608Z,81.12
2023-04-25T15:48:36.892Z,80.73
2023-04-25T15:51:05.368Z,81.05
2023-04-25T15:53:33.764Z,81.19
2023-04-25T15:56:02.340Z,81.09
2023-04-25T15:58:30.750Z,81.08
2023-04-25T16:00:59.356Z,80.82
2023-04-25T16:03:27.893Z,80.75
2023-04-25T16:05:56.436Z,80.86
2023-04-25T16:08:25.792Z,80.95
2023-04-25T16:10:54.175Z,81.26
2023-04-25T16:13:23.220Z,81.47
2023-04-25T16:15:51.667Z,81.86
2023-04-25T16:18:20.410Z,81.79
2023-04-25T16:20:48.760Z,82.20
2023-04-25T16:23:17.207Z,82.48
2023-04-25T16:25:46.124Z,82.70
2023-04-25T16:28:14.550Z,83.00
2023-04-25T16:30:42.882Z,82.88
2023-04-25T16:33:11.298Z,82.96
2023-04-25T16:35:39.727Z,83.18
2023-04-25T16:38:08.106Z,83.40
2023-04-25T16:40:36.491Z,83.56
2023-04-25T16:43:04.831Z,83.97
2023-04-25T16:45:33.375Z,84.23
2023-04-25T16:48:01.864Z,84.19
2023-04-25T16:50:30.443Z,84.55
2023-04-25T16:52:58.940Z,84.91
2023-04-25T16:55:27.300Z,84.60
2023-04-25T16:57:55.597Z,85.01
2023-04-25T17:00:24.068Z,85.45
2023-04-25T17:02:53.214Z,85.65
2023-04-25T17:05:21.731Z,85.67
2023-04-25T17:07:58.658Z,85.66
2023-04-25T17:10:27.792Z,85.86
2023-04-25T17:12:56.509Z,86.38
2023-04-25T17:15:24.895Z,86.64
2023-04-25T17:17:53.297Z,86.78
2023-04-25T17:20:21.954Z,86.93
2023-04-25T17:22:50.470Z,87.04
2023-04-25T17:25:18.894Z,87.13
2023-04-25T17:27:47.431Z,87.33
2023-04-25T17:30:16.339Z,87.72
2023-04-25T17:32:44.870Z,87.74
2023-04-25T17:35:13.771Z,87.86
2023-04-25T17:37:42.147Z,88.32
2023-04-25T17:40:13.734Z,88.49
2023-04-25T17:42:42.372Z,88.66
2023-04-25T17:45:13.160Z,88.82
2023-04-25T17:47:42.058Z,88.97
2023-04-25T17:50:10.617Z,89.34
2023-04-25T17:52:39.502Z,89.22
2023-04-25T17:55:08.668Z,88.65
2023-04-25T17:57:37.163Z,88.92
2023-04-25T18:00:09.734Z,88.68
2023-04-25T18:02:41.069Z,88.14
2023-04-25T18:05:10.049Z,87.89
2023-04-25T18:07:38.575Z,87.54
2023-04-25T18:10:07.760Z,87.28
2023-04-25T18:12:37.248Z,86.84
2023-04-25T18:15:07.140Z,86.69
2023-04-25T18:17:40.460Z,86.24
2023-04-25T18:20:15.982Z,86.03
2023-04-25T18:22:46.345Z,85.81
2023-04-25T18:25:15.591Z,85.42
2023-04-25T18:27:44.006Z,85.34
2023-04-25T18:30:13.226Z,84.87
2023-04-25T18:32:42.361Z,84.78
2023-04-25T18:35:11.353Z,84.65
2023-04-25T18:37:41.616Z,84.31
2023-04-25T18:40:14.198Z,84.12
2023-04-25T18:42:43.587Z,83.86
2023-04-25T18:45:12.141Z,83.52
2023-04-25T18:47:40.590Z,83.67
2023-04-25T18:50:09.472Z,83.62
2023-04-25T18:52:38.004Z,83.35
2023-04-25T18:55:06.713Z,83.39
2023-04-25T18:57:35.431Z,83.21
2023-04-25T19:00:06.983Z,82.85
2023-04-25T19:02:37.347Z,82.69
2023-04-25T19:05:06.688Z,82.72
2023-04-25T19:07:35.103Z,82.57
2023-04-25T19:10:08.456Z,82.39
2023-04-25T19:12:36.863Z,82.17
2023-04-25T19:15:13.249Z,82.15
2023-04-25T19:17:42.444Z,82.15
2023-04-25T19:20:11.352Z,81.85
2023-04-25T19:22:39.922Z,81.44
2023-04-25T19:25:11.158Z,81.44
2023-04-25T19:27:40.056Z,81.40
2023-04-25T19:30:09.042Z,81.84
2023-04-25T19:32:40.674Z,82.67
2023-04-25T19:35:11.653Z,82.88
2023-04-25T19:37:46.491Z,83.63
2023-04-25T19:40:16.219Z,83.42
2023-04-25T19:42:45.014Z,83.48
2023-04-25T19:45:13.429Z,83.74
2023-04-25T19:47:42.875Z,83.20
2023-04-25T19:50:11.518Z,83.46
2023-04-25T19:52:39.995Z,83.44
2023-04-25T19:55:10.410Z,83.04
2023-04-25T19:57:38.981Z,82.75
2023-04-25T20:00:11.112Z,83.23
2023-04-25T20:02:45.562Z,84.13
2023-04-25T20:05:15.571Z,84.57
2023-04-25T20:07:44.170Z,84.99
2023-04-25T20:10:16.672Z,85.12
2023-04-25T20:12:45.192Z,85.45
2023-04-25T20:15:13.727Z,85.98
2023-04-25T20:17:42.795Z,86.04
2023-04-25T20:20:13.254Z,85.81
2023-04-25T20:22:41.725Z,86.37
2023-04-25T20:25:11.277Z,86.43
2023-04-25T20:27:39.786Z,87.31
2023-04-25T20:30:09.804Z,87.21
2023-04-25T20:32:38.553Z,87.12
2023-04-25T20:35:09.410Z,86.93
2023-04-25T20:37:37.947Z,87.27
2023-04-25T20:40:08.984Z,87.92
2023-04-25T20:42:37.464Z,87.69
2023-04-25T20:45:08.045Z,87.49
2023-04-25T20:47:36.519Z,87.58
2023-04-25T20:50:06.937Z,88.25
2023-04-25T20:52:37.507Z,88.16
2023-04-25T20:55:07.088Z,88.27
2023-04-25T20:57:35.425Z,88.82
2023-04-25T21:00:05.713Z,89.26
2023-04-25T21:02:34.580Z,90.14
2023-04-25T21:05:03.050Z,89.88
2023-04-25T21:07:31.555Z,90.30
2023-04-25T21:10:00.180Z,90.54
2023-04-25T21:12:49.437Z,90.69
2023-04-25T21:15:20.715Z,90.99
2023-04-25T21:17:50.130Z,90.97
2023-04-25T21:20:20.576Z,90.68
2023-04-25T21:22:52.977Z,90.93
2023-04-25T21:25:30.301Z,91.01
2023-04-25T21:27:59.318Z,91.13
2023-04-25T21:30:27.800Z,91.44
2023-04-25T21:32:56.865Z,91.95
2023-04-25T21:35:26.125Z,92.28
2023-04-25T21:37:54.494Z,92.95
2023-04-25T21:40:22.881Z,93.29
2023-04-25T21:42:53.730Z,93.23
2023-04-25T21:45:22.223Z,93.38
2023-04-25T21:47:51.042Z,93.62
2023-04-25T21:50:19.996Z,93.90
2023-04-25T21:52:48.740Z,93.80
2023-04-25T21:55:17.558Z,94.58
2023-04-25T21:57:46.563Z,94.69
2023-04-25T22:00:24.817Z,95.00
2023-04-25T22:02:56.374Z,95.06
2023-04-25T22:05:26.814Z,94.90
2023-04-25T22:07:57.227Z,95.43
2023-04-25T22:10:25.647Z,95.07
2023-04-25T22:12:54.225Z,95.02
2023-04-25T22:15:24.193Z,95.27
2023-04-25T22:17:55.698Z,95.60
2023-04-25T22:20:26.726Z,95.33
2023-04-25T22:22:56.708Z,95.69
2023-04-25T22:25:25.355Z,95.91
2023-04-25T22:27:53.771Z,96.00
2023-04-25T22:30:22.913Z,96.09
2023-04-25T22:32:51.974Z,96.13
2023-04-25T22:35:20.418Z,95.78
2023-04-25T22:37:49.389Z,95.70
2023-04-25T22:40:18.343Z,95.40
2023-04-25T22:42:47.669Z,95.20
2023-04-25T22:45:16.266Z,95.27
2023-04-25T22:47:44.713Z,95.18
2023-04-25T22:50:13.984Z,95.32
2023-04-25T22:52:43.348Z,95.37
2023-04-25T22:55:13.258Z,95.57
2023-04-25T22:57:41.783Z,95.38
2023-04-25T23:00:24.421Z,95.25
2023-04-25T23:02:54.159Z,95.25
2023-04-25T23:05:24.854Z,95.39
2023-04-25T23:07:53.394Z,95.79
2023-04-25T23:10:21.788Z,96.58
2023-04-25T23:12:50.405Z,96.61
2023-04-25T23:15:19.968Z,96.86
2023-04-25T23:17:48.362Z,96.57
2023-04-25T23:20:16.932Z,96.46
2023-04-25T23:22:45.417Z,96.60
2023-04-25T23:25:13.876Z,96.88
2023-04-25T23:27:43.460Z,96.90
2023-04-25T23:30:12.537Z,96.76
2023-04-25T23:32:41.211Z,97.21
2023-04-25T23:35:10.497Z,97.32
2023-04-25T23:37:39.635Z,97.29
2023-04-25T23:40:15.625Z,97.39
2023-04-25T23:42:43.943Z,97.54
2023-04-25T23:45:13.016Z,97.80
2023-04-25T23:47:41.324Z,98.07
2023-04-25T23:50:10.150Z,98.52
2023-04-25T23:52:39.019Z,98.72
2023-04-25T23:55:07.643Z,98.57
2023-04-25T23:57:36.572Z,98.77
